Time;durP1;ratioP1;P1;durP2;ratioP2;P2;SDS_P1;SDS_P2;PMS_P1;PMS_P2;Temp;Humidity;BMP_temperature;BMP_pressure;BME280_temperature;BME280_humidity;BME280_pressure;Samples;Min_cycle;Max_cycle;Signal;HPM_P1;HPM_P2
2022/05/09 00:00:14;;;;;;;12.77;9.03;;;13.60;99.90;;;;;;5050935;28;20257;-58
2022/05/09 00:02:41;;;;;;;12.33;9.53;;;13.60;99.90;;;;;;5051429;28;20265;-58
2022/05/09 00:05:09;;;;;;;12.57;8.93;;;13.60;99.90;;;;;;5051042;28;20213;-58
2022/05/09 00:07:35;;;;;;;13.80;9.13;;;13.60;99.90;;;;;;5051264;28;20178;-58
2022/05/09 00:10:01;;;;;;;13.77;9.70;;;13.60;99.90;;;;;;5051135;28;20189;-63
2022/05/09 00:12:27;;;;;;;13.20;9.20;;;13.60;99.90;;;;;;5051297;28;20527;-58
2022/05/09 00:14:53;;;;;;;14.57;9.67;;;13.50;99.90;;;;;;5050977;28;20190;-62
2022/05/09 00:17:19;;;;;;;12.77;8.90;;;13.50;99.90;;;;;;5050879;28;20243;-59
2022/05/09 00:19:45;;;;;;;13.63;9.50;;;13.50;99.90;;;;;;5050683;28;20182;-58
2022/05/09 00:22:10;;;;;;;16.43;9.97;;;13.50;99.90;;;;;;5050308;28;20186;-58
2022/05/09 00:24:36;;;;;;;14.90;9.93;;;13.40;99.90;;;;;;5050907;28;20206;-58
2022/05/09 00:27:02;;;;;;;15.17;9.67;;;13.40;99.90;;;;;;5049055;28;20175;-61
2022/05/09 00:29:28;;;;;;;13.57;9.20;;;13.40;99.90;;;;;;5050797;28;20569;-60
2022/05/09 00:31:57;;;;;;;14.20;9.53;;;13.50;99.90;;;;;;5050977;28;20197;-58
2022/05/09 00:34:25;;;;;;;31.90;11.20;;;13.40;99.90;;;;;;5050619;28;20267;-58
2022/05/09 00:36:52;;;;;;;19.40;10.30;;;13.40;99.90;;;;;;5051123;28;20186;-58
2022/05/09 00:39:18;;;;;;;17.23;9.40;;;13.50;99.90;;;;;;5050607;28;20275;-58
2022/05/09 00:41:45;;;;;;;12.67;9.33;;;13.50;99.90;;;;;;5050797;28;20179;-58
2022/05/09 00:44:15;;;;;;;16.17;9.90;;;13.50;99.90;;;;;;5050414;28;20221;-58
2022/05/09 00:46:43;;;;;;;17.23;10.00;;;13.40;99.90;;;;;;5050873;28;20174;-59
2022/05/09 00:49:34;;;;;;;14.50;9.83;;;13.40;99.90;;;;;;5051039;28;20182;-59
2022/05/09 00:52:17;;;;;;;16.97;10.50;;;13.40;99.90;;;;;;5053191;28;20186;-58
2022/05/09 00:55:23;;;;;;;17.53;10.33;;;13.40;99.90;;;;;;5054238;28;20548;-58
2022/05/09 00:58:05;;;;;;;15.63;10.80;;;13.50;99.90;;;;;;5052610;28;20198;-58
2022/05/09 01:00:30;;;;;;;12.53;8.73;;;13.50;99.90;;;;;;5054463;28;20165;-58
2022/05/09 01:03:01;;;;;;;12.53;8.63;;;13.40;99.90;;;;;;5053861;28;20183;-58
2022/05/09 01:05:31;;;;;;;16.67;9.67;;;13.30;99.90;;;;;;5053854;28;20162;-58
2022/05/09 01:07:58;;;;;;;13.90;9.07;;;13.30;99.90;;;;;;5054260;28;20169;-57
2022/05/09 01:10:33;;;;;;;20.47;9.10;;;13.30;99.90;;;;;;5053901;28;20181;-57
2022/05/09 01:13:09;;;;;;;20.33;10.00;;;13.30;99.90;;;;;;5053853;28;20186;-58
2022/05/09 01:15:36;;;;;;;13.87;9.10;;;13.20;99.90;;;;;;5054061;28;20182;-59
2022/05/09 01:18:05;;;;;;;19.17;10.43;;;13.20;99.90;;;;;;5053928;28;20189;-57
2022/05/09 01:20:30;;;;;;;17.23;9.53;;;13.20;99.90;;;;;;5053966;28;20182;-59
2022/05/09 01:22:58;;;;;;;14.07;9.40;;;13.10;99.90;;;;;;5052337;28;20234;-59
2022/05/09 01:25:25;;;;;;;15.43;10.07;;;13.10;99.90;;;;;;5052346;28;21066;-58
2022/05/09 01:27:51;;;;;;;18.03;10.60;;;13.00;99.90;;;;;;5053492;28;20220;-58
2022/05/09 01:30:21;;;;;;;22.57;11.30;;;13.00;99.90;;;;;;5052226;28;20186;-57
2022/05/09 01:32:56;;;;;;;22.50;11.23;;;13.00;99.90;;;;;;5053373;28;20175;-58
2022/05/09 01:35:46;;;;;;;22.27;11.57;;;12.90;99.90;;;;;;5053131;28;20585;-58
2022/05/09 01:38:27;;;;;;;16.50;11.10;;;12.90;99.90;;;;;;5053343;28;20197;-58
2022/05/09 01:40:53;;;;;;;21.27;11.90;;;12.80;99.90;;;;;;5053581;28;20169;-58
2022/05/09 01:43:52;;;;;;;19.43;12.27;;;12.80;99.90;;;;;;5053011;28;20595;-58
2022/05/09 01:49:29;;;;;;;18.07;11.60;;;12.70;99.90;;;;;;5033255;28;20187;-59
2022/05/09 01:49:30;;;;;;;20.57;11.60;;;12.70;99.90;;;;;;5032954;28;20225;-59
2022/05/09 01:51:58;;;;;;;21.43;11.60;;;12.70;99.90;;;;;;5033107;28;20173;-58
2022/05/09 01:54:24;;;;;;;19.13;10.43;;;12.60;99.90;;;;;;5033100;28;20179;-58
2022/05/09 01:56:50;;;;;;;17.60;11.47;;;12.60;99.90;;;;;;5033189;28;20212;-59
2022/05/09 01:59:15;;;;;;;22.20;11.43;;;12.70;99.90;;;;;;5033149;28;20178;-59
2022/05/09 02:01:59;;;;;;;22.27;11.07;;;12.60;99.90;;;;;;5033015;28;20183;-59
2022/05/09 02:04:26;;;;;;;18.87;10.43;;;12.60;99.90;;;;;;5032823;28;20207;-58
2022/05/09 02:06:52;;;;;;;17.73;11.47;;;12.60;99.90;;;;;;5032958;28;20206;-58
2022/05/09 02:09:19;;;;;;;18.23;11.30;;;12.60;99.90;;;;;;5032513;28;20640;-59
2022/05/09 02:11:44;;;;;;;18.87;12.43;;;12.60;99.90;;;;;;5033033;28;20198;-59
2022/05/09 02:14:11;;;;;;;26.50;12.87;;;12.60;99.90;;;;;;5032346;28;20222;-58
2022/05/09 02:16:37;;;;;;;29.03;14.77;;;12.60;99.90;;;;;;5033042;28;20179;-58
2022/05/09 02:19:05;;;;;;;21.37;13.00;;;12.60;99.90;;;;;;5032935;28;20237;-61
2022/05/09 02:21:31;;;;;;;28.13;13.00;;;12.70;99.90;;;;;;5032509;28;20208;-58
2022/05/09 02:23:57;;;;;;;21.30;11.30;;;12.70;99.90;;;;;;5031937;28;20322;-57
2022/05/09 02:26:24;;;;;;;22.90;11.73;;;12.70;99.90;;;;;;5030966;28;20553;-58
2022/05/09 02:28:50;;;;;;;23.07;11.07;;;12.60;99.90;;;;;;5038429;28;20188;-57
2022/05/09 02:31:20;;;;;;;20.73;11.37;;;12.70;99.90;;;;;;5050966;28;20332;-59
2022/05/09 02:33:46;;;;;;;18.30;11.10;;;12.70;99.90;;;;;;5052383;28;20273;-59
2022/05/09 02:36:11;;;;;;;19.27;11.13;;;12.70;99.90;;;;;;5051582;28;20218;-57
2022/05/09 02:38:38;;;;;;;19.80;12.07;;;12.70;99.90;;;;;;5052357;28;20217;-57
2022/05/09 02:41:04;;;;;;;19.83;11.90;;;12.80;99.90;;;;;;5052267;28;20189;-58
2022/05/09 02:43:31;;;;;;;19.53;11.47;;;12.80;99.90;;;;;;5033954;28;20368;-57
2022/05/09 02:46:03;;;;;;;18.10;11.23;;;12.80;99.90;;;;;;5052035;28;20194;-58
2022/05/09 02:48:33;;;;;;;21.33;10.97;;;12.80;99.90;;;;;;5051814;28;20170;-59
2022/05/09 02:50:58;;;;;;;17.60;10.80;;;12.80;99.90;;;;;;5052045;28;20528;-58
2022/05/09 02:53:24;;;;;;;16.07;8.80;;;12.80;99.90;;;;;;5051802;28;20645;-60
2022/05/09 02:55:50;;;;;;;15.97;9.60;;;12.70;99.90;;;;;;5051847;28;20199;-59
2022/05/09 02:58:16;;;;;;;17.37;10.33;;;12.70;99.90;;;;;;5051821;28;20186;-64
2022/05/09 03:00:42;;;;;;;17.40;9.30;;;12.70;99.90;;;;;;5050611;28;20209;-57
2022/05/09 03:06:09;;;;;;;18.20;8.70;;;12.70;99.90;;;;;;4951462;29;20315;-59
2022/05/09 03:08:35;;;;;;;18.07;10.20;;;12.70;99.90;;;;;;5030437;28;20194;-59
2022/05/09 03:11:01;;;;;;;15.83;9.93;;;12.80;99.90;;;;;;5050219;28;20183;-59
2022/05/09 03:13:27;;;;;;;19.63;11.00;;;12.90;99.90;;;;;;5050254;28;20185;-60
2022/05/09 03:15:52;;;;;;;20.73;10.70;;;13.00;99.90;;;;;;5051202;28;20180;-58
2022/05/09 03:18:25;;;;;;;13.67;9.17;;;13.00;99.90;;;;;;5051382;28;20253;-58
2022/05/09 03:20:53;;;;;;;17.57;9.77;;;13.00;99.90;;;;;;5050157;28;20279;-58
2022/05/09 03:23:19;;;;;;;18.17;9.60;;;13.00;99.90;;;;;;5049332;28;20314;-57
2022/05/09 03:25:46;;;;;;;16.93;9.87;;;13.00;99.90;;;;;;5051062;28;20190;-58
2022/05/09 03:28:16;;;;;;;22.57;11.87;;;13.00;99.90;;;;;;5049468;28;20181;-66
2022/05/09 03:30:44;;;;;;;16.37;10.67;;;13.00;99.90;;;;;;5050823;28;20241;-58
2022/05/09 03:33:11;;;;;;;14.93;9.30;;;13.10;99.90;;;;;;5051444;28;20189;-58
2022/05/09 03:35:37;;;;;;;17.37;9.30;;;13.10;99.90;;;;;;5051318;28;20240;-59
2022/05/09 03:38:05;;;;;;;19.27;9.70;;;13.20;99.90;;;;;;5051320;28;20478;-57
2022/05/09 03:40:30;;;;;;;50.13;23.23;;;13.20;99.90;;;;;;5051001;28;20245;-61
2022/05/09 03:42:59;;;;;;;50.67;23.53;;;13.20;99.90;;;;;;5051217;28;20304;-59
2022/05/09 03:45:26;;;;;;;35.97;15.90;;;13.30;99.90;;;;;;5050776;28;20190;-58
2022/05/09 03:47:51;;;;;;;18.73;10.63;;;13.30;99.90;;;;;;5051362;28;20205;-59
2022/05/09 03:50:18;;;;;;;14.20;9.43;;;13.40;99.90;;;;;;5050519;28;20182;-59
2022/05/09 03:52:44;;;;;;;15.63;8.73;;;13.50;99.90;;;;;;5049768;28;20304;-58
2022/05/09 03:55:12;;;;;;;15.20;8.57;;;13.50;99.90;;;;;;5050978;28;20270;-59
2022/05/09 03:57:50;;;;;;;24.77;9.33;;;13.50;99.90;;;;;;5050693;28;20175;-59
2022/05/09 04:00:18;;;;;;;13.83;8.10;;;13.60;99.90;;;;;;5050368;28;20167;-59
2022/05/09 04:02:44;;;;;;;26.07;9.10;;;13.70;99.90;;;;;;5050851;28;20182;-58
2022/05/09 04:05:15;;;;;;;15.73;8.87;;;13.70;99.90;;;;;;5050945;28;20202;-59
2022/05/09 04:07:43;;;;;;;14.30;8.20;;;13.70;99.90;;;;;;5050616;28;20876;-59
2022/05/09 04:10:09;;;;;;;13.50;8.70;;;13.80;99.90;;;;;;5050801;28;20178;-57
2022/05/09 04:12:35;;;;;;;16.40;8.60;;;13.90;99.90;;;;;;5049166;28;20181;-58
2022/05/09 04:17:45;;;;;;;13.80;9.00;;;13.90;99.90;;;;;;5050565;28;20237;-54
2022/05/09 04:20:11;;;;;;;17.30;9.83;;;13.90;99.90;;;;;;5049308;28;20672;-57
2022/05/09 04:22:37;;;;;;;14.40;8.73;;;14.00;99.90;;;;;;5049068;28;21340;-58
2022/05/09 04:25:04;;;;;;;20.67;9.87;;;14.00;99.90;;;;;;5051187;28;20215;-59
2022/05/09 04:27:30;;;;;;;12.43;8.57;;;14.10;99.90;;;;;;5053126;28;20637;-59
2022/05/09 04:29:56;;;;;;;14.57;8.53;;;14.10;99.90;;;;;;5052094;28;20202;-61
2022/05/09 04:32:22;;;;;;;18.27;9.70;;;14.00;99.90;;;;;;5053928;28;20183;-59
2022/05/09 04:34:48;;;;;;;19.97;9.80;;;14.00;99.90;;;;;;5054442;28;20284;-60
2022/05/09 04:37:13;;;;;;;19.07;10.43;;;14.20;99.90;;;;;;5036478;28;20182;-60
2022/05/09 04:39:39;;;;;;;32.37;11.20;;;14.30;99.90;;;;;;5053788;28;20190;-59
2022/05/09 04:42:05;;;;;;;26.50;10.27;;;14.30;99.90;;;;;;5052241;28;20196;-59
2022/05/09 04:44:31;;;;;;;33.20;11.43;;;14.40;99.90;;;;;;5053044;28;20334;-59
2022/05/09 04:46:57;;;;;;;22.80;9.93;;;14.60;99.90;;;;;;5053720;28;20279;-59
2022/05/09 04:49:22;;;;;;;27.00;11.53;;;14.70;99.90;;;;;;5053742;28;20187;-59
2022/05/09 04:51:48;;;;;;;59.23;20.83;;;14.70;99.90;;;;;;5035415;28;20193;-61
2022/05/09 04:54:16;;;;;;;21.93;11.07;;;14.80;99.90;;;;;;5053830;28;20230;-63
2022/05/09 04:56:42;;;;;;;20.30;10.47;;;14.90;99.90;;;;;;5053450;28;20197;-60
2022/05/09 04:59:08;;;;;;;24.70;10.77;;;15.00;99.90;;;;;;5053006;28;20235;-59
2022/05/09 05:01:33;;;;;;;20.70;10.10;;;15.10;99.90;;;;;;5053586;28;20277;-62
2022/05/09 05:04:00;;;;;;;21.53;10.53;;;15.10;99.90;;;;;;5053329;28;20294;-60
2022/05/09 05:06:26;;;;;;;24.57;11.80;;;15.30;99.90;;;;;;5053379;28;20673;-60
2022/05/09 05:08:51;;;;;;;22.87;11.10;;;15.40;99.90;;;;;;5053301;28;20212;-60
2022/05/09 05:11:17;;;;;;;19.53;10.00;;;15.40;99.90;;;;;;5051881;28;20236;-61
2022/05/09 05:13:43;;;;;;;17.03;10.00;;;15.30;99.90;;;;;;5053768;28;20201;-60
2022/05/09 05:16:09;;;;;;;18.47;9.73;;;15.30;99.90;;;;;;5052597;28;20279;-59
2022/05/09 05:18:34;;;;;;;16.40;9.67;;;15.40;99.90;;;;;;5052221;28;20190;-59
2022/05/09 05:21:11;;;;;;;14.50;9.77;;;15.40;99.90;;;;;;5052700;28;20275;-60
2022/05/09 05:23:38;;;;;;;15.00;9.33;;;15.30;99.90;;;;;;5052297;28;20232;-61
2022/05/09 05:26:05;;;;;;;15.07;9.60;;;15.30;99.90;;;;;;5052701;28;20178;-60
2022/05/09 05:28:32;;;;;;;15.93;10.67;;;15.20;99.90;;;;;;5052729;28;20178;-59
2022/05/09 05:31:11;;;;;;;16.23;10.13;;;15.30;99.90;;;;;;5052556;28;20702;-59
2022/05/09 05:33:37;;;;;;;13.80;9.53;;;15.30;99.90;;;;;;5052048;28;20208;-59
2022/05/09 05:36:03;;;;;;;15.20;10.87;;;15.20;99.90;;;;;;5052738;28;20177;-59
2022/05/09 05:38:28;;;;;;;17.57;9.73;;;15.30;99.90;;;;;;5049730;28;20237;-74
2022/05/09 05:40:57;;;;;;;17.77;10.57;;;15.40;99.90;;;;;;5049868;28;20201;-60
2022/05/09 05:43:23;;;;;;;15.13;9.47;;;15.30;99.90;;;;;;5037742;28;20272;-60
2022/05/09 05:45:53;;;;;;;18.27;11.80;;;15.30;99.90;;;;;;5048654;28;20205;-60
2022/05/09 05:48:19;;;;;;;15.37;9.10;;;15.30;99.90;;;;;;5049513;28;20217;-59
2022/05/09 05:50:45;;;;;;;13.17;9.73;;;15.30;99.90;;;;;;5046147;28;20191;-59
2022/05/09 05:53:10;;;;;;;13.27;8.80;;;15.30;99.90;;;;;;5050160;28;20228;-62
2022/05/09 05:55:36;;;;;;;16.10;10.23;;;15.30;99.90;;;;;;5044173;28;20205;-58
2022/05/09 05:58:02;;;;;;;16.23;10.80;;;15.30;99.90;;;;;;5048730;28;20327;-62
2022/05/09 06:00:28;;;;;;;18.50;11.03;;;15.40;99.90;;;;;;5052256;28;20221;-61
2022/05/09 06:02:54;;;;;;;15.17;10.10;;;15.40;99.90;;;;;;5050879;28;20688;-60
2022/05/09 06:05:20;;;;;;;23.57;10.50;;;15.30;99.90;;;;;;5040187;28;20600;-64
2022/05/09 06:07:55;;;;;;;13.17;10.50;;;15.40;99.90;;;;;;5050245;28;20675;-62
2022/05/09 06:10:22;;;;;;;18.30;10.70;;;15.30;99.90;;;;;;5052123;28;20193;-62
2022/05/09 06:12:49;;;;;;;20.57;11.77;;;15.30;99.90;;;;;;5051947;28;20656;-59
2022/05/09 06:15:25;;;;;;;20.20;11.50;;;15.50;99.90;;;;;;5052034;28;20192;-59
2022/05/09 06:17:52;;;;;;;19.60;10.73;;;15.50;99.90;;;;;;5037167;28;20263;-62
2022/05/09 06:20:19;;;;;;;17.97;10.83;;;15.60;99.90;;;;;;5045545;28;20194;-60
2022/05/09 06:22:45;;;;;;;18.90;11.10;;;15.80;99.90;;;;;;5052471;28;20283;-62
2022/05/09 06:25:13;;;;;;;19.33;11.03;;;15.70;99.90;;;;;;5050401;28;20214;-60
2022/05/09 06:27:39;;;;;;;16.13;10.47;;;15.60;99.90;;;;;;5051748;28;20257;-60
2022/05/09 06:30:07;;;;;;;18.07;11.57;;;15.80;99.90;;;;;;5050081;28;20560;-59
2022/05/09 06:32:33;;;;;;;18.13;11.27;;;15.90;99.90;;;;;;5051672;28;20177;-60
2022/05/09 06:35:08;;;;;;;16.47;10.30;;;16.10;99.90;;;;;;5050076;28;20205;-61
2022/05/09 06:37:34;;;;;;;15.27;11.13;;;16.30;99.90;;;;;;5051269;28;20287;-60
2022/05/09 06:40:01;;;;;;;18.33;10.33;;;16.30;99.90;;;;;;5050567;28;20178;-60
2022/05/09 06:42:27;;;;;;;19.70;11.30;;;16.30;99.90;;;;;;5049361;28;20644;-62
2022/05/09 06:44:54;;;;;;;17.93;11.97;;;16.40;99.90;;;;;;5049736;28;20289;-62
2022/05/09 06:47:20;;;;;;;16.93;11.13;;;16.60;99.90;;;;;;5050077;28;20581;-60
2022/05/09 06:49:46;;;;;;;17.13;11.00;;;16.70;99.90;;;;;;5049232;28;20178;-62
2022/05/09 06:52:11;;;;;;;17.07;10.40;;;16.50;99.90;;;;;;5047753;28;20240;-61
2022/05/09 06:54:37;;;;;;;16.53;11.07;;;16.60;99.90;;;;;;5049113;28;20295;-64
2022/05/09 06:57:04;;;;;;;17.30;11.40;;;16.60;99.90;;;;;;5051028;28;20202;-62
2022/05/09 06:59:34;;;;;;;16.00;11.43;;;16.60;99.90;;;;;;5050723;28;20225;-62
2022/05/09 07:02:00;;;;;;;15.50;11.00;;;16.50;99.90;;;;;;5051399;28;20181;-62
2022/05/09 07:04:26;;;;;;;16.60;12.20;;;16.40;99.90;;;;;;5050361;28;20656;-61
2022/05/09 07:06:52;;;;;;;24.40;12.43;;;16.30;99.90;;;;;;5051281;28;20178;-62
2022/05/09 07:09:18;;;;;;;18.90;12.07;;;16.30;99.90;;;;;;5033342;28;20253;-61
2022/05/09 07:11:44;;;;;;;16.60;11.50;;;16.30;99.90;;;;;;5049971;28;20205;-62
2022/05/09 07:14:10;;;;;;;15.50;11.23;;;16.30;99.90;;;;;;5049805;28;20182;-61
2022/05/09 07:16:36;;;;;;;18.83;11.80;;;16.00;99.90;;;;;;5050335;28;20532;-60
2022/05/09 07:19:04;;;;;;;17.67;11.10;;;15.80;99.90;;;;;;5050942;28;20498;-61
2022/05/09 07:21:30;;;;;;;14.30;10.63;;;15.80;99.90;;;;;;5049325;28;20205;-63
2022/05/09 07:23:56;;;;;;;23.50;11.40;;;15.80;99.90;;;;;;5050867;28;20237;-62
2022/05/09 07:26:21;;;;;;;14.90;11.03;;;15.90;99.90;;;;;;5050835;28;20207;-60
2022/05/09 07:28:48;;;;;;;23.17;12.70;;;15.90;99.90;;;;;;5050059;28;20371;-62
2022/05/09 07:31:14;;;;;;;19.00;11.23;;;16.00;99.90;;;;;;5051037;28;20192;-60
2022/05/09 07:33:40;;;;;;;21.70;10.73;;;15.90;99.90;;;;;;5051160;28;20232;-61
2022/05/09 07:36:06;;;;;;;16.90;11.30;;;16.00;99.90;;;;;;5051142;28;20194;-60
2022/05/09 07:38:31;;;;;;;14.30;10.83;;;16.00;99.90;;;;;;5050140;28;20197;-60
2022/05/09 07:40:58;;;;;;;18.40;11.10;;;16.00;99.90;;;;;;5050799;28;20265;-61
2022/05/09 07:43:26;;;;;;;18.60;10.60;;;16.20;99.90;;;;;;5050821;28;20224;-63
2022/05/09 07:45:54;;;;;;;15.07;10.03;;;16.40;99.90;;;;;;5050832;28;20193;-61
2022/05/09 07:48:20;;;;;;;17.40;9.47;;;16.60;99.90;;;;;;5050506;28;20184;-64
2022/05/09 07:50:47;;;;;;;16.30;10.07;;;16.60;99.90;;;;;;5050394;28;20636;-60
2022/05/09 07:53:25;;;;;;;19.23;10.30;;;16.60;99.90;;;;;;5049465;28;20190;-61
2022/05/09 07:55:51;;;;;;;19.17;11.10;;;16.80;99.90;;;;;;5051101;28;20174;-65
2022/05/09 07:58:17;;;;;;;19.40;11.33;;;16.80;99.90;;;;;;5050938;28;20189;-63
2022/05/09 08:00:45;;;;;;;15.07;10.60;;;16.80;99.90;;;;;;5052656;28;20182;-63
2022/05/09 08:03:20;;;;;;;19.50;11.30;;;16.70;99.90;;;;;;5054264;28;20258;-60
2022/05/09 08:05:48;;;;;;;22.63;11.77;;;16.90;99.90;;;;;;5054389;28;20230;-63
2022/05/09 08:08:14;;;;;;;19.23;11.13;;;17.00;99.90;;;;;;5054516;28;20568;-61
2022/05/09 08:10:40;;;;;;;16.50;11.30;;;16.80;99.90;;;;;;5054559;28;20253;-61
2022/05/09 08:13:07;;;;;;;14.03;10.13;;;16.80;99.90;;;;;;5054826;28;20182;-64
2022/05/09 08:15:34;;;;;;;18.50;11.70;;;16.80;99.90;;;;;;5054629;28;20249;-60
2022/05/09 08:18:01;;;;;;;18.53;11.50;;;16.90;99.90;;;;;;5054407;28;20254;-61
2022/05/09 08:20:33;;;;;;;20.93;12.07;;;17.10;99.90;;;;;;5052612;28;20190;-66
2022/05/09 08:23:10;;;;;;;22.50;13.73;;;17.30;99.90;;;;;;5054034;28;20238;-61
2022/05/09 08:25:39;;;;;;;16.67;12.50;;;17.60;99.90;;;;;;5053936;28;20256;-65
2022/05/09 08:28:07;;;;;;;18.53;12.03;;;17.80;99.90;;;;;;5053920;28;20293;-59
2022/05/09 08:30:34;;;;;;;17.70;13.80;;;18.10;99.90;;;;;;5053977;28;20193;-61
2022/05/09 08:33:09;;;;;;;17.77;11.33;;;17.90;99.90;;;;;;5053870;28;20182;-61
2022/05/09 08:35:35;;;;;;;17.43;11.60;;;17.80;99.90;;;;;;5053770;28;20158;-76
2022/05/09 08:38:01;;;;;;;19.87;11.37;;;17.80;99.90;;;;;;5054141;28;20512;-61
2022/05/09 08:40:45;;;;;;;23.10;12.33;;;17.90;99.90;;;;;;5054033;28;20189;-62
2022/05/09 08:43:17;;;;;;;20.37;12.40;;;18.00;99.90;;;;;;5053619;28;20167;-61
2022/05/09 08:46:09;;;;;;;24.73;12.60;;;18.10;99.90;;;;;;5053931;28;20174;-61
2022/05/09 08:48:57;;;;;;;18.70;11.97;;;18.30;99.90;;;;;;5012374;28;20190;-61
2022/05/09 08:51:36;;;;;;;20.13;12.43;;;18.30;99.90;;;;;;5053364;28;20194;-61
2022/05/09 08:54:07;;;;;;;18.30;11.17;;;18.50;99.90;;;;;;5053901;28;20178;-62
2022/05/09 08:56:34;;;;;;;28.50;17.65;;;18.70;99.90;;;;;;5053789;28;20175;-64
2022/05/09 08:59:03;;;;;;;16.45;11.75;;;19.10;99.90;;;;;;5053657;28;20524;-62
2022/05/09 09:01:49;;;;;;;17.48;11.10;;;19.40;99.90;;;;;;5053027;28;20226;-65
2022/05/09 09:04:23;;;;;;;15.77;10.85;;;19.40;99.90;;;;;;5051908;28;20339;-62
2022/05/09 09:07:23;;;;;;;19.23;11.68;;;19.40;99.90;;;;;;5050971;28;20597;-62
2022/05/09 09:10:07;;;;;;;18.45;12.02;;;19.50;99.90;;;;;;5052455;28;20181;-61
2022/05/09 09:12:52;;;;;;;22.48;11.30;;;19.50;99.90;;;;;;5051426;28;20175;-63
2022/05/09 09:15:27;;;;;;;19.77;12.18;;;19.50;99.90;;;;;;5052554;28;20181;-60
2022/05/09 09:18:23;;;;;;;16.25;10.93;;;19.40;99.90;;;;;;5053030;28;20193;-60
2022/05/09 09:21:00;;;;;;;20.48;11.10;;;19.80;99.90;;;;;;5051232;28;20187;-61
2022/05/09 09:23:54;;;;;;;16.90;11.85;;;19.70;99.90;;;;;;5052698;28;20564;-63
2022/05/09 09:26:32;;;;;;;17.83;10.85;;;19.70;99.90;;;;;;5052174;28;20606;-63
2022/05/09 09:29:14;;;;;;;15.63;10.32;;;20.00;99.90;;;;;;5051276;28;20544;-61
2022/05/09 09:31:46;;;;;;;19.08;10.02;;;20.50;99.90;;;;;;5052960;28;20204;-60
2022/05/09 09:34:26;;;;;;;18.15;10.23;;;21.10;99.90;;;;;;5053209;28;20166;-62
2022/05/09 09:37:13;;;;;;;14.07;10.23;;;21.20;99.90;;;;;;5052297;28;20670;-61
2022/05/09 09:39:39;;;;;;;17.30;9.68;;;21.60;99.90;;;;;;5052684;28;20249;-62
2022/05/09 09:42:06;;;;;;;15.35;9.55;;;21.70;99.90;;;;;;5052605;28;20170;-61
2022/05/09 09:44:37;;;;;;;17.20;9.20;;;21.80;99.90;;;;;;5051795;28;20580;-64
2022/05/09 09:47:32;;;;;;;15.40;11.02;;;21.90;99.90;;;;;;5052587;28;20177;-62
2022/05/09 09:50:20;;;;;;;17.00;9.80;;;21.60;99.90;;;;;;5035183;28;20190;-62
2022/05/09 09:52:52;;;;;;;19.35;9.73;;;21.20;99.90;;;;;;5052465;28;20173;-61
2022/05/09 09:55:27;;;;;;;14.05;9.48;;;21.10;99.90;;;;;;5052489;28;20201;-61
2022/05/09 09:57:53;;;;;;;19.17;11.05;;;21.20;99.90;;;;;;5052185;28;20182;-61
2022/05/09 10:00:25;;;;;;;20.33;9.68;;;21.10;99.90;;;;;;5051924;28;20188;-62
2022/05/09 10:02:52;;;;;;;14.18;8.50;;;21.00;99.90;;;;;;5052142;28;20694;-61
2022/05/09 10:05:37;;;;;;;13.50;8.45;;;21.00;99.90;;;;;;5052305;28;20660;-62
2022/05/09 10:08:36;;;;;;;13.93;8.05;;;21.00;99.90;;;;;;5052606;28;20170;-61
2022/05/09 10:11:04;;;;;;;11.80;7.30;;;21.00;99.90;;;;;;5050005;28;20182;-63
2022/05/09 10:13:48;;;;;;;8.65;6.35;;;21.00;99.30;;;;;;5052110;28;20193;-65
2022/05/09 10:16:33;;;;;;;14.32;7.03;;;21.30;99.00;;;;;;5052295;28;20595;-61
2022/05/09 10:19:01;;;;;;;10.18;6.63;;;21.90;98.30;;;;;;5051811;28;20211;-62
2022/05/09 10:24:48;;;;;;;11.45;6.60;;;22.90;93.40;;;;;;4950176;29;20324;-63
2022/05/09 10:27:20;;;;;;;13.35;6.38;;;23.00;92.60;;;;;;4951366;29;20201;-61
2022/05/09 10:29:47;;;;;;;9.32;5.53;;;22.90;91.90;;;;;;4993890;28;20217;-64
2022/05/09 10:32:16;;;;;;;8.77;6.00;;;22.80;91.30;;;;;;5031944;28;20179;-61
2022/05/09 10:34:55;;;;;;;11.52;6.30;;;22.90;89.70;;;;;;5031998;28;20237;-64
2022/05/09 10:37:28;;;;;;;19.77;9.55;;;22.70;90.10;;;;;;5031679;28;20628;-63
2022/05/09 10:40:01;;;;;;;6.70;4.97;;;22.50;88.60;;;;;;5031100;28;20180;-63
2022/05/09 10:42:38;;;;;;;11.05;5.13;;;22.40;88.80;;;;;;5031953;28;20168;-63
2022/05/09 10:45:36;;;;;;;9.98;4.93;;;22.30;88.70;;;;;;5041854;28;20628;-60
2022/05/09 10:48:06;;;;;;;12.85;5.70;;;22.20;88.20;;;;;;5051499;28;20509;-65
2022/05/09 10:50:45;;;;;;;9.93;4.63;;;21.80;86.20;;;;;;5051473;28;20198;-61
2022/05/09 10:53:40;;;;;;;14.52;5.32;;;21.80;86.00;;;;;;5051101;28;20188;-63
2022/05/09 10:56:24;;;;;;;9.07;3.85;;;21.80;85.60;;;;;;5033326;28;20201;-61
2022/05/09 10:59:10;;;;;;;12.95;5.53;;;21.90;86.10;;;;;;5050827;28;20158;-61
2022/05/09 11:02:04;;;;;;;12.32;4.57;;;22.30;86.70;;;;;;5051122;28;20190;-68
2022/05/09 11:04:31;;;;;;;11.80;4.80;;;22.70;82.50;;;;;;5051070;28;20206;-60
2022/05/09 11:07:13;;;;;;;12.55;4.20;;;23.20;82.00;;;;;;5050667;28;20200;-60
2022/05/09 11:10:18;;;;;;;15.05;4.35;;;23.60;77.40;;;;;;5050660;28;20194;-62
2022/05/09 11:13:11;;;;;;;12.07;3.88;;;23.80;76.10;;;;;;5050677;28;20175;-62
2022/05/09 11:15:48;;;;;;;10.50;3.83;;;23.80;72.60;;;;;;5050598;28;20237;-70
2022/05/09 11:18:17;;;;;;;14.32;4.03;;;23.80;72.50;;;;;;5050853;28;20185;-62
2022/05/09 11:20:43;;;;;;;7.22;3.90;;;23.40;71.90;;;;;;5050969;28;20601;-63
2022/05/09 11:23:18;;;;;;;11.85;4.40;;;22.80;73.70;;;;;;5050635;28;20237;-61
2022/05/09 11:26:07;;;;;;;17.75;4.43;;;22.50;76.40;;;;;;5050552;28;20249;-61
2022/05/09 11:28:38;;;;;;;9.93;3.85;;;22.70;75.20;;;;;;5050403;28;20180;-62
2022/05/09 11:31:20;;;;;;;11.60;4.22;;;23.00;73.90;;;;;;5050555;28;20159;-62
2022/05/09 11:34:32;;;;;;;24.33;8.93;;;23.60;71.90;;;;;;5050288;28;20206;-61
2022/05/09 11:37:09;;;;;;;16.95;5.47;;;25.00;67.50;;;;;;5050599;28;20188;-64
2022/05/09 11:39:46;;;;;;;7.25;3.67;;;25.00;65.10;;;;;;5051010;28;20239;-69
2022/05/09 11:46:00;;;;;;;6.55;4.03;;;26.80;62.40;;;;;;5049552;28;20205;-62
2022/05/09 11:48:43;;;;;;;24.75;6.93;;;29.00;56.10;;;;;;5043216;28;20194;-62
2022/05/09 11:51:34;;;;;;;8.27;3.45;;;29.70;52.10;;;;;;5049385;28;20212;-64
2022/05/09 11:54:07;;;;;;;7.03;3.38;;;28.10;53.10;;;;;;5050822;28;20508;-62
2022/05/09 11:56:33;;;;;;;10.02;4.03;;;26.40;54.70;;;;;;5050355;28;20170;-61
2022/05/09 11:59:00;;;;;;;12.13;3.83;;;26.00;56.30;;;;;;5051076;28;20277;-65
2022/05/09 12:01:54;;;;;;;7.53;3.70;;;26.40;55.60;;;;;;5049903;28;20240;-61
2022/05/09 12:04:29;;;;;;;6.10;2.97;;;27.30;54.50;;;;;;5050010;28;20214;-61
2022/05/09 12:06:55;;;;;;;8.57;3.17;;;28.60;51.90;;;;;;5048403;28;20620;-61
2022/05/09 12:09:57;;;;;;;8.85;3.53;;;28.60;50.30;;;;;;5050216;28;20182;-59
2022/05/09 12:13:15;;;;;;;8.80;3.85;;;27.70;51.40;;;;;;5046696;28;20694;-63
2022/05/09 12:15:59;;;;;;;11.13;4.88;;;26.70;52.70;;;;;;5008892;28;20203;-64
2022/05/09 12:18:30;;;;;;;13.27;4.40;;;25.70;54.50;;;;;;5048649;28;20559;-61
2022/05/09 12:20:55;;;;;;;11.40;3.47;;;24.90;55.90;;;;;;5049090;28;20202;-61
2022/05/09 12:23:39;;;;;;;10.98;4.82;;;24.50;56.20;;;;;;5040066;28;20371;-60
2022/05/09 12:26:06;;;;;;;24.77;4.82;;;24.30;56.10;;;;;;5043761;28;20240;-61
2022/05/09 12:28:43;;;;;;;7.72;3.63;;;24.70;56.90;;;;;;5047543;28;20210;-59
2022/05/09 12:31:30;;;;;;;6.10;3.30;;;24.90;55.70;;;;;;5050452;28;20186;-61
2022/05/09 12:33:57;;;;;;;9.93;3.70;;;24.80;55.70;;;;;;5049370;28;20512;-61
2022/05/09 12:36:34;;;;;;;9.65;3.95;;;24.70;56.10;;;;;;5050324;28;20205;-61
2022/05/09 12:39:09;;;;;;;11.10;5.50;;;24.40;56.40;;;;;;5049572;28;20184;-59
2022/05/09 12:41:52;;;;;;;10.07;3.58;;;24.20;57.10;;;;;;5049433;28;20201;-61
2022/05/09 12:44:34;;;;;;;6.13;3.40;;;26.20;55.60;;;;;;5049395;28;20221;-60
2022/05/09 12:47:05;;;;;;;8.57;3.17;;;29.00;50.10;;;;;;5042909;28;20193;-61
2022/05/09 12:49:40;;;;;;;4.93;2.95;;;29.60;48.50;;;;;;5053779;28;20190;-65
2022/05/09 12:52:08;;;;;;;7.05;3.03;;;30.40;46.80;;;;;;5054367;28;20196;-70
2022/05/09 12:54:37;;;;;;;15.18;3.55;;;30.70;45.80;;;;;;5053186;28;20639;-60
2022/05/09 12:57:04;;;;;;;10.55;2.92;;;31.00;47.70;;;;;;5053112;28;20201;-62
2022/05/09 12:59:51;;;;;;;23.35;3.67;;;30.10;48.40;;;;;;5053350;28;20198;-60
2022/05/09 13:02:25;;;;;;;6.80;3.03;;;29.50;49.90;;;;;;5052362;28;20178;-66
2022/05/09 13:04:52;;;;;;;9.27;3.35;;;30.60;48.30;;;;;;5053124;28;20662;-61
2022/05/09 13:07:19;;;;;;;13.18;3.63;;;29.90;48.80;;;;;;5053834;28;20222;-60